SRR6498 EDDK-LIME
Flight info
| Callsign | SRR6498 |
|---|---|
| Flight time | N/A |
| Altitude | 33000 |
| Route | KUMIK1R KUMIK Y854 BOMBI DCT GIGET DCT ABUKA DCT KRH DCT NATOR DCT TRA DCT RIPUS DCT GERSA DCT SOSON DCT ODINA |
| Aircraft | B77L/H-SDE1E2E3FGHIJ2J3J4J5M1RWXY/LB1D1 |
Departure
| Time | 2026-04-25 04:20 |
|---|---|
| Airport | Cologne Bonn Airport (EDDK) |
Arrival
| Time | N/A |
|---|---|
| Airport | Il Caravaggio International Airport (LIME) |
| Time | Latitude | Longitude | Altitude | Speed | Heading |
|---|---|---|---|---|---|
| 2026-04-25 04:08 | 50.86808 | 7.13913 | 259 ft | 0 kts | 227° |
| 2026-04-25 04:08 | 50.86820 | 7.13933 | 259 ft | 4 kts | 222° |
| 2026-04-25 04:09 | 50.86842 | 7.13959 | 259 ft | 4 kts | 209° |
| 2026-04-25 04:09 | 50.86866 | 7.13975 | 259 ft | 4 kts | 186° |
| 2026-04-25 04:09 | 50.86890 | 7.13971 | 258 ft | 5 kts | 142° |
| 2026-04-25 04:09 | 50.86897 | 7.13962 | 257 ft | 0 kts | 137° |
| 2026-04-25 04:11 | 50.86879 | 7.13986 | 259 ft | 5 kts | 138° |
| 2026-04-25 04:12 | 50.86852 | 7.14026 | 259 ft | 5 kts | 137° |
| 2026-04-25 04:12 | 50.86826 | 7.14064 | 259 ft | 5 kts | 137° |
| 2026-04-25 04:12 | 50.86801 | 7.14100 | 259 ft | 5 kts | 137° |
| 2026-04-25 04:12 | 50.86765 | 7.14130 | 259 ft | 8 kts | 169° |
| 2026-04-25 04:13 | 50.86709 | 7.14174 | 262 ft | 9 kts | 140° |
| 2026-04-25 04:13 | 50.86661 | 7.14242 | 265 ft | 9 kts | 137° |
| 2026-04-25 04:13 | 50.86614 | 7.14310 | 266 ft | 9 kts | 137° |
| 2026-04-25 04:13 | 50.86561 | 7.14386 | 266 ft | 10 kts | 137° |
| 2026-04-25 04:14 | 50.86508 | 7.14464 | 270 ft | 10 kts | 137° |
| 2026-04-25 04:14 | 50.86455 | 7.14540 | 273 ft | 10 kts | 137° |
| 2026-04-25 04:14 | 50.86402 | 7.14617 | 276 ft | 10 kts | 137° |
| 2026-04-25 04:14 | 50.86349 | 7.14695 | 279 ft | 10 kts | 137° |
| 2026-04-25 04:15 | 50.86297 | 7.14770 | 282 ft | 10 kts | 137° |
| 2026-04-25 04:15 | 50.86245 | 7.14845 | 285 ft | 10 kts | 137° |
| 2026-04-25 04:15 | 50.86193 | 7.14920 | 288 ft | 10 kts | 137° |
| 2026-04-25 04:15 | 50.86136 | 7.15002 | 295 ft | 13 kts | 137° |
| 2026-04-25 04:16 | 50.86062 | 7.15109 | 298 ft | 16 kts | 137° |
| 2026-04-25 04:16 | 50.85973 | 7.15239 | 301 ft | 19 kts | 137° |
| 2026-04-25 04:16 | 50.85870 | 7.15389 | 305 ft | 20 kts | 137° |
| 2026-04-25 04:16 | 50.85770 | 7.15533 | 307 ft | 17 kts | 137° |
| 2026-04-25 04:17 | 50.85689 | 7.15650 | 308 ft | 16 kts | 137° |
| 2026-04-25 04:17 | 50.85609 | 7.15766 | 309 ft | 16 kts | 137° |
| 2026-04-25 04:17 | 50.85529 | 7.15882 | 314 ft | 15 kts | 137° |
| 2026-04-25 04:17 | 50.85453 | 7.15991 | 314 ft | 15 kts | 137° |
| 2026-04-25 04:18 | 50.85380 | 7.16099 | 314 ft | 14 kts | 133° |
| 2026-04-25 04:18 | 50.85339 | 7.16226 | 314 ft | 13 kts | 102° |
| 2026-04-25 04:18 | 50.85348 | 7.16362 | 314 ft | 13 kts | 67° |
| 2026-04-25 04:18 | 50.85401 | 7.16471 | 315 ft | 13 kts | 40° |
| 2026-04-25 04:19 | 50.85479 | 7.16516 | 313 ft | 11 kts | 6° |
| 2026-04-25 04:19 | 50.85557 | 7.16502 | 314 ft | 11 kts | 339° |
| 2026-04-25 04:19 | 50.85630 | 7.16411 | 314 ft | 22 kts | 318° |
| 2026-04-25 04:19 | 50.85899 | 7.16022 | 307 ft | 89 kts | 317° |
| 2026-04-25 04:20 | 50.86523 | 7.15117 | 283 ft | 153 kts | 317° |
| 2026-04-25 04:20 | 50.87412 | 7.13824 | 477 ft | 180 kts | 317° |
| 2026-04-25 04:20 | 50.88340 | 7.12485 | 1090 ft | 181 kts | 318° |
| 2026-04-25 04:20 | 50.88983 | 7.11641 | 1476 ft | 182 kts | 328° |
| 2026-04-25 04:21 | 50.90614 | 7.11481 | 2086 ft | 194 kts | 23° |
| 2026-04-25 04:21 | 50.91884 | 7.12496 | 2326 ft | 216 kts | 24° |
| 2026-04-25 04:21 | 50.93283 | 7.13726 | 2496 ft | 244 kts | 39° |
| 2026-04-25 04:21 | 50.94250 | 7.15995 | 2996 ft | 256 kts | 64° |
| 2026-04-25 04:22 | 50.95000 | 7.18598 | 3715 ft | 261 kts | 62° |
| 2026-04-25 04:22 | 50.95531 | 7.20312 | 4300 ft | 262 kts | 61° |
| 2026-04-25 04:22 | 50.96630 | 7.23799 | 5414 ft | 266 kts | 61° |
| 2026-04-25 04:22 | 50.97182 | 7.25549 | 5935 ft | 270 kts | 61° |
| 2026-04-25 04:23 | 50.98322 | 7.29154 | 6926 ft | 276 kts | 62° |
| 2026-04-25 04:23 | 50.98893 | 7.30967 | 7414 ft | 279 kts | 62° |
| 2026-04-25 04:23 | 50.99766 | 7.33735 | 8145 ft | 283 kts | 62° |
| 2026-04-25 04:23 | 51.00654 | 7.36551 | 8893 ft | 287 kts | 62° |
| 2026-04-25 04:24 | 51.01544 | 7.39408 | 9629 ft | 289 kts | 65° |
| 2026-04-25 04:24 | 51.01951 | 7.42552 | 10145 ft | 298 kts | 94° |
| 2026-04-25 04:24 | 51.01495 | 7.45774 | 10179 ft | 301 kts | 108° |
| 2026-04-25 04:24 | 51.00841 | 7.48948 | 10183 ft | 303 kts | 108° |
| 2026-04-25 04:25 | 51.00192 | 7.52134 | 10176 ft | 302 kts | 107° |
| 2026-04-25 04:25 | 50.99553 | 7.55306 | 10195 ft | 303 kts | 107° |
| 2026-04-25 04:25 | 50.98903 | 7.58555 | 10348 ft | 324 kts | 107° |
| 2026-04-25 04:25 | 50.98201 | 7.62089 | 10534 ft | 348 kts | 107° |
| 2026-04-25 04:26 | 50.97450 | 7.65885 | 10736 ft | 372 kts | 107° |
| 2026-04-25 04:26 | 50.96663 | 7.69868 | 11286 ft | 384 kts | 107° |
| 2026-04-25 04:26 | 50.95854 | 7.73963 | 12015 ft | 393 kts | 107° |
| 2026-04-25 04:26 | 50.95031 | 7.78117 | 12876 ft | 398 kts | 107° |
| 2026-04-25 04:27 | 50.94140 | 7.82282 | 13697 ft | 402 kts | 113° |
| 2026-04-25 04:27 | 50.92682 | 7.86116 | 14345 ft | 411 kts | 130° |
| 2026-04-25 04:27 | 50.90656 | 7.89330 | 15164 ft | 413 kts | 141° |
| 2026-04-25 04:27 | 50.88322 | 7.91962 | 15891 ft | 415 kts | 148° |
| 2026-04-25 04:28 | 50.85903 | 7.94537 | 16578 ft | 422 kts | 147° |
| 2026-04-25 04:28 | 50.83455 | 7.97157 | 17343 ft | 426 kts | 147° |
| 2026-04-25 04:28 | 50.80992 | 7.99803 | 18154 ft | 430 kts | 147° |
| 2026-04-25 04:28 | 50.78500 | 8.02488 | 18832 ft | 436 kts | 148° |
| 2026-04-25 04:29 | 50.75985 | 8.05202 | 19483 ft | 440 kts | 148° |
| 2026-04-25 04:29 | 50.73476 | 8.07913 | 20139 ft | 444 kts | 148° |
| 2026-04-25 04:29 | 50.70914 | 8.10681 | 20785 ft | 449 kts | 148° |
| 2026-04-25 04:29 | 50.68327 | 8.13474 | 21427 ft | 453 kts | 149° |
| 2026-04-25 04:30 | 50.65710 | 8.16297 | 22065 ft | 457 kts | 149° |
| 2026-04-25 04:30 | 50.63064 | 8.19147 | 22691 ft | 462 kts | 149° |
| 2026-04-25 04:30 | 50.60399 | 8.22014 | 23344 ft | 466 kts | 150° |
| 2026-04-25 04:30 | 50.57708 | 8.24904 | 23905 ft | 470 kts | 150° |
| 2026-04-25 04:31 | 50.54994 | 8.27817 | 24467 ft | 473 kts | 150° |
| 2026-04-25 04:31 | 50.52273 | 8.30733 | 25061 ft | 475 kts | 150° |
| 2026-04-25 04:31 | 50.49536 | 8.33661 | 25622 ft | 478 kts | 150° |
| 2026-04-25 04:31 | 50.46776 | 8.36608 | 26135 ft | 481 kts | 150° |
| 2026-04-25 04:32 | 50.43997 | 8.39572 | 26601 ft | 486 kts | 150° |
| 2026-04-25 04:32 | 50.41185 | 8.42565 | 27092 ft | 490 kts | 150° |
| 2026-04-25 04:32 | 50.38351 | 8.45579 | 27603 ft | 492 kts | 150° |
| 2026-04-25 04:32 | 50.35510 | 8.48597 | 28146 ft | 495 kts | 150° |
| 2026-04-25 04:33 | 50.32653 | 8.51627 | 28624 ft | 497 kts | 150° |
| 2026-04-25 04:33 | 50.29790 | 8.54660 | 29156 ft | 498 kts | 150° |
| 2026-04-25 04:33 | 50.26916 | 8.57700 | 29621 ft | 500 kts | 150° |
| 2026-04-25 04:33 | 50.24019 | 8.60758 | 30021 ft | 504 kts | 150° |
| 2026-04-25 04:34 | 50.21106 | 8.63829 | 30407 ft | 505 kts | 150° |
| 2026-04-25 04:34 | 50.18191 | 8.66900 | 30867 ft | 504 kts | 150° |
| 2026-04-25 04:34 | 50.15288 | 8.69955 | 31341 ft | 503 kts | 150° |
| 2026-04-25 04:34 | 50.12385 | 8.73003 | 31800 ft | 502 kts | 150° |
| 2026-04-25 04:35 | 50.09508 | 8.75938 | 32183 ft | 499 kts | 154° |
| 2026-04-25 04:35 | 50.06346 | 8.78065 | 32486 ft | 490 kts | 169° |
| 2026-04-25 04:35 | 50.03032 | 8.79026 | 32980 ft | 481 kts | 179° |
| 2026-04-25 04:35 | 49.99706 | 8.79040 | 33111 ft | 477 kts | 191° |
| 2026-04-25 04:36 | 49.96434 | 8.78286 | 33177 ft | 475 kts | 193° |
| 2026-04-25 04:36 | 49.89894 | 8.76765 | 33143 ft | 473 kts | 192° |
| 2026-04-25 04:37 | 49.83379 | 8.75396 | 33137 ft | 471 kts | 191° |
| 2026-04-25 04:37 | 49.76886 | 8.74081 | 33141 ft | 470 kts | 191° |
| 2026-04-25 04:38 | 49.70451 | 8.72773 | 33148 ft | 469 kts | 191° |
| 2026-04-25 04:38 | 49.63972 | 8.71452 | 33136 ft | 469 kts | 191° |
| 2026-04-25 04:39 | 49.57491 | 8.70129 | 33153 ft | 470 kts | 191° |
| 2026-04-25 04:39 | 49.51008 | 8.68815 | 33160 ft | 471 kts | 191° |
| 2026-04-25 04:40 | 49.44499 | 8.67496 | 33163 ft | 472 kts | 191° |
| 2026-04-25 04:40 | 49.37977 | 8.66174 | 33151 ft | 472 kts | 191° |
| 2026-04-25 04:41 | 49.31502 | 8.64864 | 33153 ft | 472 kts | 191° |
| 2026-04-25 04:41 | 49.24993 | 8.63551 | 33143 ft | 471 kts | 191° |
| 2026-04-25 04:42 | 49.18495 | 8.62243 | 33128 ft | 471 kts | 190° |
| 2026-04-25 04:42 | 49.12006 | 8.60941 | 33135 ft | 469 kts | 190° |
| 2026-04-25 04:43 | 49.05539 | 8.59646 | 33133 ft | 468 kts | 190° |
| 2026-04-25 04:43 | 48.99091 | 8.58332 | 33133 ft | 466 kts | 192° |
| 2026-04-25 04:44 | 48.92762 | 8.56336 | 33135 ft | 464 kts | 195° |
| 2026-04-25 04:44 | 48.86490 | 8.54266 | 33136 ft | 463 kts | 195° |
| 2026-04-25 04:45 | 48.80186 | 8.52216 | 33132 ft | 463 kts | 194° |
| 2026-04-25 04:45 | 48.73875 | 8.50182 | 33131 ft | 463 kts | 194° |
| 2026-04-25 04:46 | 48.67566 | 8.48157 | 33135 ft | 463 kts | 194° |
| 2026-04-25 04:46 | 48.61306 | 8.46152 | 33135 ft | 463 kts | 194° |
| 2026-04-25 04:47 | 48.55008 | 8.44140 | 33135 ft | 463 kts | 194° |
| 2026-04-25 04:47 | 48.48698 | 8.42129 | 33139 ft | 463 kts | 194° |